sensor_id;sensor_type;location;lat;lon;timestamp;temperature;humidity
12370;DHT22;6249;52.128;9.986;2023-04-24T00:02:12;13.20;99.90
12370;DHT22;6249;52.128;9.986;2023-04-24T00:05:33;13.00;99.90
12370;DHT22;6249;52.128;9.986;2023-04-24T00:08:54;13.00;99.90
12370;DHT22;6249;52.128;9.986;2023-04-24T00:12:15;13.00;99.90
12370;DHT22;6249;52.128;9.986;2023-04-24T00:15:36;12.90;99.90
12370;DHT22;6249;52.128;9.986;2023-04-24T00:18:56;12.80;99.90
12370;DHT22;6249;52.128;9.986;2023-04-24T00:22:17;12.80;99.90
12370;DHT22;6249;52.128;9.986;2023-04-24T00:25:38;12.70;99.90
12370;DHT22;6249;52.128;9.986;2023-04-24T00:28:58;12.60;99.90
12370;DHT22;6249;52.128;9.986;2023-04-24T00:32:19;12.60;99.90
12370;DHT22;6249;52.128;9.986;2023-04-24T00:35:40;12.60;99.90
12370;DHT22;6249;52.128;9.986;2023-04-24T00:39:03;12.60;99.90
12370;DHT22;6249;52.128;9.986;2023-04-24T00:42:24;12.50;99.90
12370;DHT22;6249;52.128;9.986;2023-04-24T00:45:44;12.50;99.90
12370;DHT22;6249;52.128;9.986;2023-04-24T00:49:08;12.40;99.90
12370;DHT22;6249;52.128;9.986;2023-04-24T00:52:31;12.40;99.90
12370;DHT22;6249;52.128;9.986;2023-04-24T00:55:52;12.50;99.90
12370;DHT22;6249;52.128;9.986;2023-04-24T00:59:18;12.40;99.90
12370;DHT22;6249;52.128;9.986;2023-04-24T01:02:43;12.40;99.90
12370;DHT22;6249;52.128;9.986;2023-04-24T01:06:05;12.20;99.90
12370;DHT22;6249;52.128;9.986;2023-04-24T01:09:26;12.10;99.90
12370;DHT22;6249;52.128;9.986;2023-04-24T01:12:47;12.00;99.90
12370;DHT22;6249;52.128;9.986;2023-04-24T01:16:10;11.90;99.90
12370;DHT22;6249;52.128;9.986;2023-04-24T01:19:30;11.90;99.90
12370;DHT22;6249;52.128;9.986;2023-04-24T01:22:52;11.80;99.90
12370;DHT22;6249;52.128;9.986;2023-04-24T01:26:15;11.70;99.90
12370;DHT22;6249;52.128;9.986;2023-04-24T01:29:38;11.60;99.90
12370;DHT22;6249;52.128;9.986;2023-04-24T01:32:59;11.70;99.90
12370;DHT22;6249;52.128;9.986;2023-04-24T01:36:21;11.50;99.90
12370;DHT22;6249;52.128;9.986;2023-04-24T01:39:44;11.60;99.90
12370;DHT22;6249;52.128;9.986;2023-04-24T01:43:05;11.60;99.90
12370;DHT22;6249;52.128;9.986;2023-04-24T01:46:28;11.70;99.90
12370;DHT22;6249;52.128;9.986;2023-04-24T01:49:50;11.80;99.90
12370;DHT22;6249;52.128;9.986;2023-04-24T01:53:15;11.80;99.90
12370;DHT22;6249;52.128;9.986;2023-04-24T01:56:36;11.70;99.90
12370;DHT22;6249;52.128;9.986;2023-04-24T01:59:59;11.70;99.90
12370;DHT22;6249;52.128;9.986;2023-04-24T02:03:20;11.70;99.90
12370;DHT22;6249;52.128;9.986;2023-04-24T02:06:41;11.70;99.90
12370;DHT22;6249;52.128;9.986;2023-04-24T02:10:02;11.60;99.90
12370;DHT22;6249;52.128;9.986;2023-04-24T02:13:26;11.70;99.90
12370;DHT22;6249;52.128;9.986;2023-04-24T02:16:49;11.70;99.90
12370;DHT22;6249;52.128;9.986;2023-04-24T02:20:10;11.60;99.90
12370;DHT22;6249;52.128;9.986;2023-04-24T02:23:33;11.50;99.90
12370;DHT22;6249;52.128;9.986;2023-04-24T02:26:53;11.50;99.90
12370;DHT22;6249;52.128;9.986;2023-04-24T02:30:14;11.70;99.90
12370;DHT22;6249;52.128;9.986;2023-04-24T02:33:37;11.70;99.90
12370;DHT22;6249;52.128;9.986;2023-04-24T02:37:00;11.60;99.90
12370;DHT22;6249;52.128;9.986;2023-04-24T02:40:20;11.50;99.90
12370;DHT22;6249;52.128;9.986;2023-04-24T02:43:41;11.50;99.90
12370;DHT22;6249;52.128;9.986;2023-04-24T02:47:06;11.50;99.90
12370;DHT22;6249;52.128;9.986;2023-04-24T02:50:27;11.50;99.90
12370;DHT22;6249;52.128;9.986;2023-04-24T02:53:50;11.50;99.90
12370;DHT22;6249;52.128;9.986;2023-04-24T02:57:11;11.40;99.90
12370;DHT22;6249;52.128;9.986;2023-04-24T03:00:32;11.30;99.90
12370;DHT22;6249;52.128;9.986;2023-04-24T03:03:52;11.20;99.90
12370;DHT22;6249;52.128;9.986;2023-04-24T03:07:13;11.20;99.90
12370;DHT22;6249;52.128;9.986;2023-04-24T03:10:34;11.20;99.90
12370;DHT22;6249;52.128;9.986;2023-04-24T03:13:59;11.20;99.90
12370;DHT22;6249;52.128;9.986;2023-04-24T03:17:20;11.10;99.90
12370;DHT22;6249;52.128;9.986;2023-04-24T03:20:41;11.10;99.90
12370;DHT22;6249;52.128;9.986;2023-04-24T03:24:01;11.10;99.90
12370;DHT22;6249;52.128;9.986;2023-04-24T03:27:24;11.20;99.90
12370;DHT22;6249;52.128;9.986;2023-04-24T03:30:45;11.10;99.90
12370;DHT22;6249;52.128;9.986;2023-04-24T03:34:05;10.90;99.90
12370;DHT22;6249;52.128;9.986;2023-04-24T03:37:26;10.80;99.90
12370;DHT22;6249;52.128;9.986;2023-04-24T03:40:49;10.70;99.90
12370;DHT22;6249;52.128;9.986;2023-04-24T03:44:09;10.70;99.90
12370;DHT22;6249;52.128;9.986;2023-04-24T03:47:32;10.50;99.90
12370;DHT22;6249;52.128;9.986;2023-04-24T03:50:57;10.40;99.90
12370;DHT22;6249;52.128;9.986;2023-04-24T03:54:19;10.30;99.90
12370;DHT22;6249;52.128;9.986;2023-04-24T03:57:40;10.30;99.90
12370;DHT22;6249;52.128;9.986;2023-04-24T04:01:03;10.40;99.90
12370;DHT22;6249;52.128;9.986;2023-04-24T04:04:24;10.40;99.90
12370;DHT22;6249;52.128;9.986;2023-04-24T04:07:46;10.60;99.90
12370;DHT22;6249;52.128;9.986;2023-04-24T04:11:07;10.50;99.90
12370;DHT22;6249;52.128;9.986;2023-04-24T04:14:28;10.50;99.90
12370;DHT22;6249;52.128;9.986;2023-04-24T04:17:48;10.60;99.90
12370;DHT22;6249;52.128;9.986;2023-04-24T04:21:09;10.60;99.90
12370;DHT22;6249;52.128;9.986;2023-04-24T04:24:32;10.60;99.90
12370;DHT22;6249;52.128;9.986;2023-04-24T04:27:53;10.80;99.90
12370;DHT22;6249;52.128;9.986;2023-04-24T04:31:16;11.40;99.90
12370;DHT22;6249;52.128;9.986;2023-04-24T04:34:36;10.90;99.90
12370;DHT22;6249;52.128;9.986;2023-04-24T04:37:57;11.00;99.90
12370;DHT22;6249;52.128;9.986;2023-04-24T04:41:21;11.10;99.90
12370;DHT22;6249;52.128;9.986;2023-04-24T04:44:41;11.30;99.90
12370;DHT22;6249;52.128;9.986;2023-04-24T04:48:05;11.40;99.90
12370;DHT22;6249;52.128;9.986;2023-04-24T04:51:29;11.50;99.90
12370;DHT22;6249;52.128;9.986;2023-04-24T04:54:51;11.60;99.90
12370;DHT22;6249;52.128;9.986;2023-04-24T04:58:14;11.60;99.90
12370;DHT22;6249;52.128;9.986;2023-04-24T05:01:37;11.70;99.90
12370;DHT22;6249;52.128;9.986;2023-04-24T05:05:00;11.60;99.90
12370;DHT22;6249;52.128;9.986;2023-04-24T05:08:21;11.70;99.90
12370;DHT22;6249;52.128;9.986;2023-04-24T05:11:44;11.80;99.90
12370;DHT22;6249;52.128;9.986;2023-04-24T05:15:05;11.80;99.90
12370;DHT22;6249;52.128;9.986;2023-04-24T05:18:26;11.80;99.90
12370;DHT22;6249;52.128;9.986;2023-04-24T05:21:47;11.80;99.90
12370;DHT22;6249;52.128;9.986;2023-04-24T05:25:07;11.80;99.90
12370;DHT22;6249;52.128;9.986;2023-04-24T05:28:28;11.80;99.90
12370;DHT22;6249;52.128;9.986;2023-04-24T05:31:49;11.90;99.90
12370;DHT22;6249;52.128;9.986;2023-04-24T05:35:12;12.00;99.90
12370;DHT22;6249;52.128;9.986;2023-04-24T05:38:32;11.80;99.90
12370;DHT22;6249;52.128;9.986;2023-04-24T05:41:53;11.80;99.90
12370;DHT22;6249;52.128;9.986;2023-04-24T05:45:18;11.80;99.90
12370;DHT22;6249;52.128;9.986;2023-04-24T05:48:38;11.80;99.90
12370;DHT22;6249;52.128;9.986;2023-04-24T05:52:01;11.90;99.90
12370;DHT22;6249;52.128;9.986;2023-04-24T05:55:25;11.90;99.90
12370;DHT22;6249;52.128;9.986;2023-04-24T05:58:48;12.00;99.90
12370;DHT22;6249;52.128;9.986;2023-04-24T06:02:11;11.90;99.90
12370;DHT22;6249;52.128;9.986;2023-04-24T06:05:32;11.90;99.90
12370;DHT22;6249;52.128;9.986;2023-04-24T06:08:52;12.00;99.90
12370;DHT22;6249;52.128;9.986;2023-04-24T06:12:16;12.00;99.90
12370;DHT22;6249;52.128;9.986;2023-04-24T06:15:39;12.00;99.90
12370;DHT22;6249;52.128;9.986;2023-04-24T06:18:59;12.00;99.90
12370;DHT22;6249;52.128;9.986;2023-04-24T06:22:22;12.10;99.90
12370;DHT22;6249;52.128;9.986;2023-04-24T06:25:43;12.40;99.90
12370;DHT22;6249;52.128;9.986;2023-04-24T06:29:04;12.40;99.90
12370;DHT22;6249;52.128;9.986;2023-04-24T06:32:25;12.40;99.90
12370;DHT22;6249;52.128;9.986;2023-04-24T06:35:46;12.30;99.90
12370;DHT22;6249;52.128;9.986;2023-04-24T06:39:06;11.80;99.90
12370;DHT22;6249;52.128;9.986;2023-04-24T06:42:27;10.90;99.90
12370;DHT22;6249;52.128;9.986;2023-04-24T06:45:47;10.70;99.90
12370;DHT22;6249;52.128;9.986;2023-04-24T06:49:08;10.30;99.90
12370;DHT22;6249;52.128;9.986;2023-04-24T06:52:31;10.30;99.90
12370;DHT22;6249;52.128;9.986;2023-04-24T06:55:55;10.40;99.90
12370;DHT22;6249;52.128;9.986;2023-04-24T06:59:16;10.50;99.90
12370;DHT22;6249;52.128;9.986;2023-04-24T07:02:36;10.70;99.90
12370;DHT22;6249;52.128;9.986;2023-04-24T07:06:00;10.80;99.90
12370;DHT22;6249;52.128;9.986;2023-04-24T07:09:23;11.10;99.90
12370;DHT22;6249;52.128;9.986;2023-04-24T07:12:48;11.30;99.90
12370;DHT22;6249;52.128;9.986;2023-04-24T07:16:08;11.20;99.90
12370;DHT22;6249;52.128;9.986;2023-04-24T07:19:33;11.30;99.90
12370;DHT22;6249;52.128;9.986;2023-04-24T07:22:54;11.20;99.90
12370;DHT22;6249;52.128;9.986;2023-04-24T07:26:15;11.50;99.90
12370;DHT22;6249;52.128;9.986;2023-04-24T07:29:35;11.40;99.90
12370;DHT22;6249;52.128;9.986;2023-04-24T07:32:56;11.70;99.90
12370;DHT22;6249;52.128;9.986;2023-04-24T07:36:17;11.70;99.90
12370;DHT22;6249;52.128;9.986;2023-04-24T07:39:39;11.60;99.90
12370;DHT22;6249;52.128;9.986;2023-04-24T07:42:59;11.80;99.90
12370;DHT22;6249;52.128;9.986;2023-04-24T07:46:20;11.90;99.90
12370;DHT22;6249;52.128;9.986;2023-04-24T07:49:41;12.10;99.90
12370;DHT22;6249;52.128;9.986;2023-04-24T07:53:05;12.30;99.90
12370;DHT22;6249;52.128;9.986;2023-04-24T07:56:25;12.40;99.90
12370;DHT22;6249;52.128;9.986;2023-04-24T07:59:46;12.30;99.90
12370;DHT22;6249;52.128;9.986;2023-04-24T08:03:06;12.40;99.90
12370;DHT22;6249;52.128;9.986;2023-04-24T08:06:29;12.60;99.90
12370;DHT22;6249;52.128;9.986;2023-04-24T08:09:52;12.50;99.90
12370;DHT22;6249;52.128;9.986;2023-04-24T08:13:13;12.50;99.90
12370;DHT22;6249;52.128;9.986;2023-04-24T08:16:36;12.60;99.90
12370;DHT22;6249;52.128;9.986;2023-04-24T08:19:57;12.80;99.90
12370;DHT22;6249;52.128;9.986;2023-04-24T08:23:21;12.90;99.90
12370;DHT22;6249;52.128;9.986;2023-04-24T08:26:42;13.20;99.90
12370;DHT22;6249;52.128;9.986;2023-04-24T08:30:04;13.60;99.90
12370;DHT22;6249;52.128;9.986;2023-04-24T08:33:25;13.80;99.90
12370;DHT22;6249;52.128;9.986;2023-04-24T08:36:48;13.90;99.90
12370;DHT22;6249;52.128;9.986;2023-04-24T08:40:13;13.90;99.90
12370;DHT22;6249;52.128;9.986;2023-04-24T08:43:35;13.80;99.90
12370;DHT22;6249;52.128;9.986;2023-04-24T08:47:02;13.50;99.90
12370;DHT22;6249;52.128;9.986;2023-04-24T08:50:25;13.20;99.90
12370;DHT22;6249;52.128;9.986;2023-04-24T08:53:46;13.60;99.90
12370;DHT22;6249;52.128;9.986;2023-04-24T08:57:08;13.90;99.90
12370;DHT22;6249;52.128;9.986;2023-04-24T09:00:32;14.20;99.90
12370;DHT22;6249;52.128;9.986;2023-04-24T09:03:53;14.60;99.90
12370;DHT22;6249;52.128;9.986;2023-04-24T09:07:17;14.90;99.90
12370;DHT22;6249;52.128;9.986;2023-04-24T09:10:39;14.70;99.90
12370;DHT22;6249;52.128;9.986;2023-04-24T09:14:00;14.40;99.10
12370;DHT22;6249;52.128;9.986;2023-04-24T09:17:26;14.60;99.80
12370;DHT22;6249;52.128;9.986;2023-04-24T09:21:08;14.30;99.90
12370;DHT22;6249;52.128;9.986;2023-04-24T09:24:29;14.30;99.90
12370;DHT22;6249;52.128;9.986;2023-04-24T09:27:53;14.30;99.90
12370;DHT22;6249;52.128;9.986;2023-04-24T09:31:18;14.60;99.50
12370;DHT22;6249;52.128;9.986;2023-04-24T09:34:39;15.00;98.00
12370;DHT22;6249;52.128;9.986;2023-04-24T09:38:00;15.10;97.30
12370;DHT22;6249;52.128;9.986;2023-04-24T09:41:21;15.10;98.10
12370;DHT22;6249;52.128;9.986;2023-04-24T09:44:41;15.50;97.40
12370;DHT22;6249;52.128;9.986;2023-04-24T09:48:03;15.30;97.30
12370;DHT22;6249;52.128;9.986;2023-04-24T09:51:36;15.50;97.10
12370;DHT22;6249;52.128;9.986;2023-04-24T09:55:00;15.70;96.10
12370;DHT22;6249;52.128;9.986;2023-04-24T09:58:27;15.50;95.80
12370;DHT22;6249;52.128;9.986;2023-04-24T10:01:48;15.40;97.00
12370;DHT22;6249;52.128;9.986;2023-04-24T10:05:11;15.20;96.70
12370;DHT22;6249;52.128;9.986;2023-04-24T10:08:35;14.80;97.20
12370;DHT22;6249;52.128;9.986;2023-04-24T10:11:56;14.50;97.50
12370;DHT22;6249;52.128;9.986;2023-04-24T10:15:17;14.40;98.10
12370;DHT22;6249;52.128;9.986;2023-04-24T10:18:41;14.30;97.60
12370;DHT22;6249;52.128;9.986;2023-04-24T10:22:05;14.00;98.60
12370;DHT22;6249;52.128;9.986;2023-04-24T10:25:32;13.80;99.10
12370;DHT22;6249;52.128;9.986;2023-04-24T10:28:54;13.50;99.80
12370;DHT22;6249;52.128;9.986;2023-04-24T10:32:17;13.40;99.90
12370;DHT22;6249;52.128;9.986;2023-04-24T10:35:44;13.30;99.90
12370;DHT22;6249;52.128;9.986;2023-04-24T10:39:08;13.80;99.90
12370;DHT22;6249;52.128;9.986;2023-04-24T10:42:31;14.40;99.60
12370;DHT22;6249;52.128;9.986;2023-04-24T10:46:02;14.30;99.00
12370;DHT22;6249;52.128;9.986;2023-04-24T10:49:30;14.50;98.90
12370;DHT22;6249;52.128;9.986;2023-04-24T10:52:51;14.80;98.60
12370;DHT22;6249;52.128;9.986;2023-04-24T10:56:16;15.00;97.80
12370;DHT22;6249;52.128;9.986;2023-04-24T10:59:37;14.50;98.40
12370;DHT22;6249;52.128;9.986;2023-04-24T11:02:58;14.10;99.90
12370;DHT22;6249;52.128;9.986;2023-04-24T11:06:31;13.90;99.60
12370;DHT22;6249;52.128;9.986;2023-04-24T11:09:59;13.60;99.90
12370;DHT22;6249;52.128;9.986;2023-04-24T11:13:22;13.60;99.90
12370;DHT22;6249;52.128;9.986;2023-04-24T11:16:53;13.90;99.90
12370;DHT22;6249;52.128;9.986;2023-04-24T11:20:17;15.40;99.20
12370;DHT22;6249;52.128;9.986;2023-04-24T11:23:40;16.30;96.90
12370;DHT22;6249;52.128;9.986;2023-04-24T11:30:32;17.10;94.50
12370;DHT22;6249;52.128;9.986;2023-04-24T11:33:56;16.90;94.30
12370;DHT22;6249;52.128;9.986;2023-04-24T11:37:17;16.20;95.40
12370;DHT22;6249;52.128;9.986;2023-04-24T11:40:38;16.50;95.30
12370;DHT22;6249;52.128;9.986;2023-04-24T11:43:59;17.20;94.70
12370;DHT22;6249;52.128;9.986;2023-04-24T11:47:30;17.00;95.20
12370;DHT22;6249;52.128;9.986;2023-04-24T11:50:51;16.40;95.40
12370;DHT22;6249;52.128;9.986;2023-04-24T11:54:11;15.30;97.80
12370;DHT22;6249;52.128;9.986;2023-04-24T11:57:34;14.90;99.00
12370;DHT22;6249;52.128;9.986;2023-04-24T12:00:59;14.60;99.90
12370;DHT22;6249;52.128;9.986;2023-04-24T12:04:22;14.30;99.90
12370;DHT22;6249;52.128;9.986;2023-04-24T12:07:42;14.20;99.90
12370;DHT22;6249;52.128;9.986;2023-04-24T12:11:05;14.10;99.90
12370;DHT22;6249;52.128;9.986;2023-04-24T12:14:27;14.30;99.90
12370;DHT22;6249;52.128;9.986;2023-04-24T12:17:50;14.30;99.90
12370;DHT22;6249;52.128;9.986;2023-04-24T12:21:18;14.20;99.90
12370;DHT22;6249;52.128;9.986;2023-04-24T12:28:24;13.40;99.90
12370;DHT22;6249;52.128;9.986;2023-04-24T12:32:01;13.60;99.90
12370;DHT22;6249;52.128;9.986;2023-04-24T12:35:28;13.40;99.90
12370;DHT22;6249;52.128;9.986;2023-04-24T12:38:52;13.60;99.90
12370;DHT22;6249;52.128;9.986;2023-04-24T12:42:13;13.40;99.90
12370;DHT22;6249;52.128;9.986;2023-04-24T12:45:34;13.80;99.90
12370;DHT22;6249;52.128;9.986;2023-04-24T12:48:54;14.70;99.90
12370;DHT22;6249;52.128;9.986;2023-04-24T12:52:15;15.80;99.30
12370;DHT22;6249;52.128;9.986;2023-04-24T12:55:38;16.20;97.60
12370;DHT22;6249;52.128;9.986;2023-04-24T12:58:58;15.50;98.20
12370;DHT22;6249;52.128;9.986;2023-04-24T13:02:21;15.20;98.10
12370;DHT22;6249;52.128;9.986;2023-04-24T13:05:44;15.60;99.20
12370;DHT22;6249;52.128;9.986;2023-04-24T13:09:07;15.60;99.10
12370;DHT22;6249;52.128;9.986;2023-04-24T13:12:28;15.20;98.60
12370;DHT22;6249;52.128;9.986;2023-04-24T13:15:51;15.10;99.90
12370;DHT22;6249;52.128;9.986;2023-04-24T13:19:12;15.30;98.90
12370;DHT22;6249;52.128;9.986;2023-04-24T13:22:32;14.40;99.90
12370;DHT22;6249;52.128;9.986;2023-04-24T13:25:55;13.80;99.90
12370;DHT22;6249;52.128;9.986;2023-04-24T13:29:19;13.50;99.90
12370;DHT22;6249;52.128;9.986;2023-04-24T13:32:41;13.40;99.90
12370;DHT22;6249;52.128;9.986;2023-04-24T13:36:04;12.60;99.90
12370;DHT22;6249;52.128;9.986;2023-04-24T13:39:26;12.10;99.90
12370;DHT22;6249;52.128;9.986;2023-04-24T13:42:46;11.80;99.90
12370;DHT22;6249;52.128;9.986;2023-04-24T13:46:12;12.00;99.90
12370;DHT22;6249;52.128;9.986;2023-04-24T13:49:35;12.60;99.90
12370;DHT22;6249;52.128;9.986;2023-04-24T13:53:00;13.00;99.90
12370;DHT22;6249;52.128;9.986;2023-04-24T13:56:22;13.00;99.90
12370;DHT22;6249;52.128;9.986;2023-04-24T13:59:42;12.40;99.90
12370;DHT22;6249;52.128;9.986;2023-04-24T14:03:03;12.00;99.90
12370;DHT22;6249;52.128;9.986;2023-04-24T14:06:26;11.60;99.90
12370;DHT22;6249;52.128;9.986;2023-04-24T14:09:47;11.30;99.90
12370;DHT22;6249;52.128;9.986;2023-04-24T14:13:08;11.20;99.90
12370;DHT22;6249;52.128;9.986;2023-04-24T14:16:29;11.00;99.90
12370;DHT22;6249;52.128;9.986;2023-04-24T14:19:50;10.80;99.90
12370;DHT22;6249;52.128;9.986;2023-04-24T14:23:16;10.60;99.90
12370;DHT22;6249;52.128;9.986;2023-04-24T14:26:39;11.10;99.90
12370;DHT22;6249;52.128;9.986;2023-04-24T14:30:00;10.50;99.90
12370;DHT22;6249;52.128;9.986;2023-04-24T14:33:21;10.50;99.90
12370;DHT22;6249;52.128;9.986;2023-04-24T14:36:42;10.90;99.90
12370;DHT22;6249;52.128;9.986;2023-04-24T14:40:05;11.40;99.90
12370;DHT22;6249;52.128;9.986;2023-04-24T14:43:29;11.00;99.90
12370;DHT22;6249;52.128;9.986;2023-04-24T14:46:50;11.10;99.90
12370;DHT22;6249;52.128;9.986;2023-04-24T14:50:10;10.90;99.90
12370;DHT22;6249;52.128;9.986;2023-04-24T14:53:32;10.70;99.90
12370;DHT22;6249;52.128;9.986;2023-04-24T14:56:54;10.40;99.90
12370;DHT22;6249;52.128;9.986;2023-04-24T15:00:17;10.30;99.90
12370;DHT22;6249;52.128;9.986;2023-04-24T15:03:41;10.10;99.90
12370;DHT22;6249;52.128;9.986;2023-04-24T15:07:02;10.10;99.90
12370;DHT22;6249;52.128;9.986;2023-04-24T15:10:22;10.00;99.90
12370;DHT22;6249;52.128;9.986;2023-04-24T15:13:48;10.10;99.90
12370;DHT22;6249;52.128;9.986;2023-04-24T15:17:08;9.90;99.90
12370;DHT22;6249;52.128;9.986;2023-04-24T15:20:32;10.00;99.90
12370;DHT22;6249;52.128;9.986;2023-04-24T15:23:54;9.90;99.90
12370;DHT22;6249;52.128;9.986;2023-04-24T15:27:15;9.80;99.90
12370;DHT22;6249;52.128;9.986;2023-04-24T15:30:36;9.70;99.90
12370;DHT22;6249;52.128;9.986;2023-04-24T15:34:01;9.60;99.90
12370;DHT22;6249;52.128;9.986;2023-04-24T15:37:22;9.50;99.90
12370;DHT22;6249;52.128;9.986;2023-04-24T15:40:42;9.40;99.90
12370;DHT22;6249;52.128;9.986;2023-04-24T15:44:03;9.50;99.90
12370;DHT22;6249;52.128;9.986;2023-04-24T15:47:24;9.60;99.90
12370;DHT22;6249;52.128;9.986;2023-04-24T15:50:45;9.70;99.90
12370;DHT22;6249;52.128;9.986;2023-04-24T15:54:08;9.50;99.90
12370;DHT22;6249;52.128;9.986;2023-04-24T15:57:31;9.70;99.90
12370;DHT22;6249;52.128;9.986;2023-04-24T16:00:51;9.80;99.90
12370;DHT22;6249;52.128;9.986;2023-04-24T16:04:14;9.80;99.90
12370;DHT22;6249;52.128;9.986;2023-04-24T16:07:37;9.90;99.90
12370;DHT22;6249;52.128;9.986;2023-04-24T16:10:58;10.00;99.90
12370;DHT22;6249;52.128;9.986;2023-04-24T16:14:18;10.00;99.90
12370;DHT22;6249;52.128;9.986;2023-04-24T16:17:39;10.00;99.90
12370;DHT22;6249;52.128;9.986;2023-04-24T16:20:59;9.90;99.90
12370;DHT22;6249;52.128;9.986;2023-04-24T16:24:23;10.00;99.90
12370;DHT22;6249;52.128;9.986;2023-04-24T16:27:46;9.90;99.90
12370;DHT22;6249;52.128;9.986;2023-04-24T16:31:10;10.10;99.90
12370;DHT22;6249;52.128;9.986;2023-04-24T16:34:30;10.20;99.90
12370;DHT22;6249;52.128;9.986;2023-04-24T16:37:51;10.00;99.90
12370;DHT22;6249;52.128;9.986;2023-04-24T16:41:14;10.00;99.90
12370;DHT22;6249;52.128;9.986;2023-04-24T16:44:35;10.00;99.90
12370;DHT22;6249;52.128;9.986;2023-04-24T16:47:55;9.90;99.90
12370;DHT22;6249;52.128;9.986;2023-04-24T16:51:18;9.80;99.90
12370;DHT22;6249;52.128;9.986;2023-04-24T16:54:39;9.80;99.90
12370;DHT22;6249;52.128;9.986;2023-04-24T16:58:00;9.70;99.90
12370;DHT22;6249;52.128;9.986;2023-04-24T17:01:23;9.60;99.90
12370;DHT22;6249;52.128;9.986;2023-04-24T17:04:43;9.50;99.90
12370;DHT22;6249;52.128;9.986;2023-04-24T17:08:04;9.50;99.90
12370;DHT22;6249;52.128;9.986;2023-04-24T17:11:26;9.60;99.90
12370;DHT22;6249;52.128;9.986;2023-04-24T17:14:48;9.60;99.90
12370;DHT22;6249;52.128;9.986;2023-04-24T17:18:09;9.50;99.90
12370;DHT22;6249;52.128;9.986;2023-04-24T17:21:32;9.60;99.90
12370;DHT22;6249;52.128;9.986;2023-04-24T17:24:55;9.60;99.90
12370;DHT22;6249;52.128;9.986;2023-04-24T17:28:29;9.60;99.90
12370;DHT22;6249;52.128;9.986;2023-04-24T17:31:50;9.70;99.90
12370;DHT22;6249;52.128;9.986;2023-04-24T17:35:11;9.70;99.90
12370;DHT22;6249;52.128;9.986;2023-04-24T17:38:32;9.60;99.90
12370;DHT22;6249;52.128;9.986;2023-04-24T17:41:55;9.90;99.90
12370;DHT22;6249;52.128;9.986;2023-04-24T17:45:16;9.60;99.90
12370;DHT22;6249;52.128;9.986;2023-04-24T17:48:38;9.70;99.90
12370;DHT22;6249;52.128;9.986;2023-04-24T17:51:59;9.60;99.90
12370;DHT22;6249;52.128;9.986;2023-04-24T17:55:22;9.60;99.90
12370;DHT22;6249;52.128;9.986;2023-04-24T17:58:42;9.70;99.90
12370;DHT22;6249;52.128;9.986;2023-04-24T18:02:05;9.60;99.90
12370;DHT22;6249;52.128;9.986;2023-04-24T18:05:27;9.60;99.90
12370;DHT22;6249;52.128;9.986;2023-04-24T18:08:50;9.50;99.90
12370;DHT22;6249;52.128;9.986;2023-04-24T18:12:11;9.50;99.90
12370;DHT22;6249;52.128;9.986;2023-04-24T18:15:32;9.70;99.90
12370;DHT22;6249;52.128;9.986;2023-04-24T18:18:57;9.60;99.90
12370;DHT22;6249;52.128;9.986;2023-04-24T18:22:17;9.70;99.90
12370;DHT22;6249;52.128;9.986;2023-04-24T18:25:38;9.60;99.90
12370;DHT22;6249;52.128;9.986;2023-04-24T18:29:03;9.60;99.90
12370;DHT22;6249;52.128;9.986;2023-04-24T18:32:25;9.70;99.90
12370;DHT22;6249;52.128;9.986;2023-04-24T18:35:45;9.70;99.90
12370;DHT22;6249;52.128;9.986;2023-04-24T18:39:06;9.40;99.90
12370;DHT22;6249;52.128;9.986;2023-04-24T18:42:26;9.20;99.90
12370;DHT22;6249;52.128;9.986;2023-04-24T18:45:47;8.90;99.90
12370;DHT22;6249;52.128;9.986;2023-04-24T18:49:08;8.80;99.90
12370;DHT22;6249;52.128;9.986;2023-04-24T18:52:31;8.80;99.90
12370;DHT22;6249;52.128;9.986;2023-04-24T18:55:51;8.70;99.90
12370;DHT22;6249;52.128;9.986;2023-04-24T18:59:14;8.70;99.90
12370;DHT22;6249;52.128;9.986;2023-04-24T19:02:37;8.70;99.90
12370;DHT22;6249;52.128;9.986;2023-04-24T19:05:57;8.60;99.90
12370;DHT22;6249;52.128;9.986;2023-04-24T19:09:20;8.60;99.90
12370;DHT22;6249;52.128;9.986;2023-04-24T19:12:41;8.50;99.90
12370;DHT22;6249;52.128;9.986;2023-04-24T19:16:02;8.40;99.90
12370;DHT22;6249;52.128;9.986;2023-04-24T19:19:22;8.20;99.90
12370;DHT22;6249;52.128;9.986;2023-04-24T19:22:46;8.30;99.90
12370;DHT22;6249;52.128;9.986;2023-04-24T19:26:06;8.20;99.90
12370;DHT22;6249;52.128;9.986;2023-04-24T19:29:30;8.20;99.90
12370;DHT22;6249;52.128;9.986;2023-04-24T19:32:50;8.30;99.90
12370;DHT22;6249;52.128;9.986;2023-04-24T19:36:11;8.20;99.90
12370;DHT22;6249;52.128;9.986;2023-04-24T19:39:32;8.20;99.90
12370;DHT22;6249;52.128;9.986;2023-04-24T19:42:52;8.20;99.90
12370;DHT22;6249;52.128;9.986;2023-04-24T19:46:15;8.30;99.90
12370;DHT22;6249;52.128;9.986;2023-04-24T19:49:36;8.30;99.90
12370;DHT22;6249;52.128;9.986;2023-04-24T19:52:56;8.10;99.90
12370;DHT22;6249;52.128;9.986;2023-04-24T19:56:17;8.10;99.90
12370;DHT22;6249;52.128;9.986;2023-04-24T19:59:38;8.20;99.90
12370;DHT22;6249;52.128;9.986;2023-04-24T20:03:01;8.40;99.90
12370;DHT22;6249;52.128;9.986;2023-04-24T20:06:22;8.20;99.90
12370;DHT22;6249;52.128;9.986;2023-04-24T20:09:42;8.10;99.90
12370;DHT22;6249;52.128;9.986;2023-04-24T20:13:03;8.30;99.90
12370;DHT22;6249;52.128;9.986;2023-04-24T20:16:23;8.10;99.90
12370;DHT22;6249;52.128;9.986;2023-04-24T20:19:44;7.90;99.90
12370;DHT22;6249;52.128;9.986;2023-04-24T20:23:08;7.90;99.90
12370;DHT22;6249;52.128;9.986;2023-04-24T20:26:28;7.90;99.90
12370;DHT22;6249;52.128;9.986;2023-04-24T20:29:49;8.10;99.90
12370;DHT22;6249;52.128;9.986;2023-04-24T20:33:10;8.10;99.90
12370;DHT22;6249;52.128;9.986;2023-04-24T20:36:30;8.10;99.90
12370;DHT22;6249;52.128;9.986;2023-04-24T20:39:52;8.10;99.90
12370;DHT22;6249;52.128;9.986;2023-04-24T20:43:13;8.50;99.90
12370;DHT22;6249;52.128;9.986;2023-04-24T20:46:36;8.20;99.90
12370;DHT22;6249;52.128;9.986;2023-04-24T20:49:59;7.90;99.90
12370;DHT22;6249;52.128;9.986;2023-04-24T20:53:23;7.80;99.90
12370;DHT22;6249;52.128;9.986;2023-04-24T20:56:48;7.90;99.90
12370;DHT22;6249;52.128;9.986;2023-04-24T21:00:12;8.00;99.90
12370;DHT22;6249;52.128;9.986;2023-04-24T21:03:32;8.00;99.90
12370;DHT22;6249;52.128;9.986;2023-04-24T21:06:53;7.90;99.90
12370;DHT22;6249;52.128;9.986;2023-04-24T21:10:16;7.90;99.90
12370;DHT22;6249;52.128;9.986;2023-04-24T21:13:38;7.90;99.90
12370;DHT22;6249;52.128;9.986;2023-04-24T21:16:59;7.90;99.90
12370;DHT22;6249;52.128;9.986;2023-04-24T21:20:21;7.90;99.90
12370;DHT22;6249;52.128;9.986;2023-04-24T21:23:41;7.80;99.90
12370;DHT22;6249;52.128;9.986;2023-04-24T21:27:02;8.10;99.90
12370;DHT22;6249;52.128;9.986;2023-04-24T21:30:23;8.10;99.90
12370;DHT22;6249;52.128;9.986;2023-04-24T21:33:43;8.10;99.90
12370;DHT22;6249;52.128;9.986;2023-04-24T21:37:04;8.20;99.90
12370;DHT22;6249;52.128;9.986;2023-04-24T21:40:29;8.10;99.90
12370;DHT22;6249;52.128;9.986;2023-04-24T21:43:52;8.10;99.90
12370;DHT22;6249;52.128;9.986;2023-04-24T21:47:12;8.30;99.90
12370;DHT22;6249;52.128;9.986;2023-04-24T21:50:33;8.40;99.90